createdAt,value
2016-02-16T00:00:23.543Z,48.97
2016-02-16T00:01:23.592Z,48.95
2016-02-16T00:02:23.658Z,48.85
2016-02-16T00:03:23.708Z,49.14
2016-02-16T00:04:23.758Z,49.24
2016-02-16T00:05:23.822Z,49.24
2016-02-16T00:06:23.872Z,49.16
2016-02-16T00:07:23.921Z,49.33
2016-02-16T00:08:23.971Z,49.36
2016-02-16T00:09:24.021Z,48.78
2016-02-16T00:10:24.055Z,48.66
2016-02-16T00:11:24.119Z,49.24
2016-02-16T00:12:24.169Z,49.33
2016-02-16T00:13:24.218Z,49.91
2016-02-16T00:14:24.284Z,49.36
2016-02-16T00:15:24.334Z,49.33
2016-02-16T00:16:24.383Z,49.71
2016-02-16T00:17:24.432Z,49.24
2016-02-16T00:18:24.467Z,49.26
2016-02-16T00:19:24.531Z,48.97
2016-02-16T00:20:24.676Z,49.07
2016-02-16T00:21:24.646Z,48.97
2016-02-16T00:22:24.681Z,49.36
2016-02-16T00:23:24.746Z,49.26
2016-02-16T00:24:24.779Z,48.88
2016-02-16T00:25:24.845Z,48.95
2016-02-16T00:26:24.879Z,49.24
2016-02-16T00:27:24.944Z,49.07
2016-02-16T00:28:24.994Z,49.07
2016-02-16T00:29:25.059Z,49.26
2016-02-16T00:30:25.092Z,49.33
2016-02-16T00:31:25.158Z,49.07
2016-02-16T00:32:25.191Z,49.16
2016-02-16T00:33:25.242Z,49.45
2016-02-16T00:34:25.306Z,48.88
2016-02-16T00:35:25.356Z,49.26
2016-02-16T00:36:25.390Z,49.45
2016-02-16T00:37:25.455Z,49.36
2016-02-16T00:38:25.505Z,48.88
2016-02-16T00:39:25.555Z,49.45
2016-02-16T00:40:25.604Z,49.36
2016-02-16T00:41:25.654Z,49.26
2016-02-16T00:42:25.719Z,49.45
2016-02-16T00:43:25.753Z,49.26
2016-02-16T00:44:25.818Z,49.16
2016-02-16T00:45:25.868Z,49.74
2016-02-16T00:46:25.917Z,49.36
2016-02-16T00:47:25.982Z,49.65
2016-02-16T00:48:26.016Z,49.26
2016-02-16T00:49:26.065Z,49.55
2016-02-16T00:50:26.131Z,49.36
2016-02-16T00:51:26.165Z,49.65
2016-02-16T00:52:26.229Z,49.93
2016-02-16T00:53:26.264Z,49.93
2016-02-16T00:54:26.329Z,49.93
2016-02-16T00:55:26.378Z,49.26
2016-02-16T00:56:26.429Z,49.84
2016-02-16T00:57:26.493Z,49.65
2016-02-16T00:58:26.542Z,49.84
2016-02-16T00:59:26.577Z,50.03
2016-02-16T01:00:26.642Z,49.93
2016-02-16T01:01:26.692Z,49.65
2016-02-16T01:02:26.742Z,49.93
2016-02-16T01:03:26.791Z,50.03
2016-02-16T01:04:26.684Z,50.03
2016-02-16T01:05:26.889Z,49.93
2016-02-16T01:06:26.955Z,50.12
2016-02-16T01:07:27.005Z,50.03
2016-02-16T01:08:27.055Z,49.93
2016-02-16T01:09:27.104Z,50.03
2016-02-16T01:10:27.215Z,49.93
2016-02-16T01:11:27.202Z,49.84
2016-02-16T01:12:27.268Z,50.41
2016-02-16T01:13:27.318Z,50.22
2016-02-16T01:14:27.368Z,50.51
2016-02-16T01:15:27.416Z,50.6
2016-02-16T01:16:27.466Z,50.32
2016-02-16T01:17:27.515Z,50.12
2016-02-16T01:18:27.565Z,50.41
2016-02-16T01:19:27.616Z,50.32
2016-02-16T01:20:27.680Z,50.12
2016-02-16T01:21:27.729Z,50.12
2016-02-16T01:22:27.779Z,50.32
2016-02-16T01:23:27.828Z,50.22
2016-02-16T01:24:27.879Z,50.22
2016-02-16T01:25:27.929Z,50.32
2016-02-16T01:26:27.978Z,50.03
2016-02-16T01:27:28.028Z,50.03
2016-02-16T01:28:28.092Z,50.41
2016-02-16T01:29:28.142Z,50.32
2016-02-16T01:30:28.192Z,50.22
2016-02-16T01:31:28.242Z,50.51
2016-02-16T01:32:28.306Z,50.32
2016-02-16T01:33:28.340Z,50.32
2016-02-16T01:34:28.389Z,50.22
2016-02-16T01:35:28.439Z,50.22
2016-02-16T01:36:28.488Z,50.12
2016-02-16T01:37:28.539Z,50.12
2016-02-16T01:38:28.603Z,50.32
2016-02-16T01:39:28.653Z,50.12
2016-02-16T01:40:28.687Z,50.12
2016-02-16T01:41:28.752Z,50.12
2016-02-16T01:42:28.802Z,50.12
2016-02-16T01:43:28.867Z,50.12
2016-02-16T01:44:28.902Z,50.99
2016-02-16T01:45:28.966Z,50.99
2016-02-16T01:46:29.015Z,50.51
2016-02-16T01:47:29.066Z,50.89
2016-02-16T01:48:29.115Z,50.7
2016-02-16T01:49:29.180Z,50.6
2016-02-16T01:50:29.215Z,50.79
2016-02-16T01:51:29.279Z,50.6
2016-02-16T01:52:29.329Z,51.08
2016-02-16T01:53:29.379Z,51.08
2016-02-16T01:54:29.412Z,51.28
2016-02-16T01:55:29.478Z,51.46
2016-02-16T01:56:29.527Z,50.99
2016-02-16T01:57:29.576Z,51.46
2016-02-16T01:58:29.626Z,50.99
2016-02-16T01:59:29.675Z,51.56
2016-02-16T02:00:29.741Z,51.08
2016-02-16T02:01:29.790Z,51.08
2016-02-16T02:02:29.840Z,51.46
2016-02-16T02:03:29.889Z,51.37
2016-02-16T02:04:29.940Z,51.46
2016-02-16T02:05:29.990Z,50.99
2016-02-16T02:06:30.040Z,51.37
2016-02-16T02:07:30.089Z,51.37
2016-02-16T02:08:30.154Z,51.28
2016-02-16T02:09:30.203Z,51.08
2016-02-16T02:10:30.238Z,50.99
2016-02-16T02:11:30.303Z,50.99
2016-02-16T02:12:30.353Z,51.08
2016-02-16T02:13:30.402Z,50.7
2016-02-16T02:14:30.451Z,50.79
2016-02-16T02:15:30.517Z,50.7
2016-02-16T02:16:30.566Z,51.08
2016-02-16T02:17:30.600Z,51.08
2016-02-16T02:18:30.666Z,51.18
2016-02-16T02:19:30.714Z,51.18
2016-02-16T02:20:30.764Z,51.18
2016-02-16T02:21:30.814Z,51.08
2016-02-16T02:22:30.863Z,51.08
2016-02-16T02:23:30.930Z,51.28
2016-02-16T02:24:30.978Z,51.37
2016-02-16T02:25:31.027Z,51.28
2016-02-16T02:26:31.062Z,51.37
2016-02-16T02:27:31.127Z,51.18
2016-02-16T02:28:31.177Z,51.46
2016-02-16T02:29:31.227Z,51.37
2016-02-16T02:30:31.291Z,51.18
2016-02-16T02:31:31.340Z,51.18
2016-02-16T02:32:31.374Z,51.18
2016-02-16T02:33:31.441Z,51.18
2016-02-16T02:34:31.474Z,51.46
2016-02-16T02:35:31.540Z,51.28
2016-02-16T02:36:31.604Z,51.75
2016-02-16T02:37:31.638Z,51.75
2016-02-16T02:38:31.703Z,51.46
2016-02-16T02:39:31.754Z,51.37
2016-02-16T02:40:31.818Z,51.56
2016-02-16T02:41:31.837Z,51.46
2016-02-16T02:42:31.901Z,51.56
2016-02-16T02:43:31.951Z,51.46
2016-02-16T02:44:32.000Z,52.04
2016-02-16T02:45:32.066Z,52.04
2016-02-16T02:46:32.101Z,52.33
2016-02-16T02:47:32.150Z,51.46
2016-02-16T02:48:32.199Z,51.65
2016-02-16T02:49:32.264Z,52.23
2016-02-16T02:50:32.313Z,52.14
2016-02-16T02:51:32.380Z,52.33
2016-02-16T02:52:32.414Z,51.56
2016-02-16T02:53:32.478Z,52.23
2016-02-16T02:54:32.527Z,52.23
2016-02-16T02:55:32.577Z,52.14
2016-02-16T02:56:32.627Z,52.04
2016-02-16T02:57:32.677Z,52.14
2016-02-16T02:58:32.727Z,51.75
2016-02-16T02:59:32.776Z,51.46
2016-02-16T03:00:32.841Z,52.14
2016-02-16T03:01:32.890Z,52.04
2016-02-16T03:02:32.940Z,52.14
2016-02-16T03:03:32.974Z,52.33
2016-02-16T03:04:33.061Z,51.75
2016-02-16T03:05:33.094Z,51.37
2016-02-16T03:06:33.144Z,51.37
2016-02-16T03:07:33.193Z,51.56
2016-02-16T03:08:33.244Z,51.28
2016-02-16T03:09:33.293Z,51.18
2016-02-16T03:10:33.358Z,51.28
2016-02-16T03:11:33.392Z,51.18
2016-02-16T03:12:33.457Z,51.08
2016-02-16T03:13:33.507Z,51.18
2016-02-16T03:14:33.541Z,51.08
2016-02-16T03:15:33.606Z,51.37
2016-02-16T03:16:33.656Z,51.18
2016-02-16T03:17:33.704Z,51.37
2016-02-16T03:18:33.770Z,51.37
2016-02-16T03:19:33.820Z,51.46
2016-02-16T03:20:33.870Z,51.65
2016-02-16T03:21:33.920Z,52.14
2016-02-16T03:22:33.953Z,51.85
2016-02-16T03:23:34.002Z,52.33
2016-02-16T03:24:34.067Z,52.23
2016-02-16T03:25:34.117Z,52.04
2016-02-16T03:26:34.167Z,51.95
2016-02-16T03:27:34.217Z,52.81
2016-02-16T03:28:34.266Z,52.52
2016-02-16T03:29:34.315Z,52.81
2016-02-16T03:30:34.364Z,52.23
2016-02-16T03:31:34.414Z,52.42
2016-02-16T03:32:34.480Z,51.95
2016-02-16T03:33:34.514Z,52.04
2016-02-16T03:34:34.563Z,52.71
2016-02-16T03:35:34.628Z,52.62
2016-02-16T03:36:34.677Z,52.42
2016-02-16T03:37:34.728Z,52.23
2016-02-16T03:38:34.777Z,52.71
2016-02-16T03:39:34.827Z,51.95
2016-02-16T03:40:34.891Z,52.14
2016-02-16T03:41:34.926Z,52.14
2016-02-16T03:42:34.990Z,52.14
2016-02-16T03:43:35.040Z,52.04
2016-02-16T03:44:35.090Z,52.04
2016-02-16T03:45:35.140Z,52.04
2016-02-16T03:46:35.189Z,52.04
2016-02-16T03:47:35.239Z,52.42
2016-02-16T03:48:35.287Z,52.91
2016-02-16T03:49:35.354Z,52.71
2016-02-16T03:50:35.404Z,52.42
2016-02-16T03:51:35.453Z,52.71
2016-02-16T03:52:35.502Z,52.33
2016-02-16T03:53:35.551Z,52.71
2016-02-16T03:54:35.601Z,53.58
2016-02-16T03:55:35.651Z,53.28
2016-02-16T03:56:35.701Z,53.19
2016-02-16T03:57:35.766Z,52.52
2016-02-16T03:58:35.830Z,52.81
2016-02-16T03:59:35.864Z,52.81
2016-02-16T04:00:35.914Z,52.52
2016-02-16T04:01:35.980Z,53.09
2016-02-16T04:02:36.014Z,52.71
2016-02-16T04:03:36.094Z,52.71
2016-02-16T04:04:36.113Z,52.52
2016-02-16T04:05:36.177Z,52.52
2016-02-16T04:06:36.227Z,52.52
2016-02-16T04:07:36.277Z,52.42
2016-02-16T04:08:36.326Z,52.14
2016-02-16T04:09:36.391Z,52.42
2016-02-16T04:10:36.441Z,52.52
2016-02-16T04:11:36.475Z,52.52
2016-02-16T04:12:36.525Z,53.38
2016-02-16T04:13:36.590Z,53.28
2016-02-16T04:14:36.639Z,53.38
2016-02-16T04:15:36.690Z,52.91
2016-02-16T04:16:36.738Z,52.71
2016-02-16T04:17:36.788Z,52.81
2016-02-16T04:18:36.854Z,52.81
2016-02-16T04:19:36.887Z,52.71
2016-02-16T04:20:36.937Z,52.91
2016-02-16T04:21:37.002Z,52.91
2016-02-16T04:22:37.052Z,52.52
2016-02-16T04:23:37.101Z,52.52
2016-02-16T04:24:37.150Z,52.52
2016-02-16T04:25:37.217Z,52.62
2016-02-16T04:26:37.250Z,52.81
2016-02-16T04:27:37.315Z,52.81
2016-02-16T04:28:37.365Z,52.91
2016-02-16T04:29:37.414Z,52.81
2016-02-16T04:30:37.461Z,52.71
2016-02-16T04:31:37.499Z,52.62
2016-02-16T04:32:37.550Z,52.91
2016-02-16T04:33:37.586Z,53.48
2016-02-16T04:34:37.623Z,53.28
2016-02-16T04:35:37.661Z,53.28
2016-02-16T04:36:37.706Z,52.81
2016-02-16T04:37:37.751Z,52.71
2016-02-16T04:38:37.810Z,52.42
2016-02-16T04:39:37.855Z,52.81
2016-02-16T04:40:37.885Z,52.71
2016-02-16T04:41:37.199Z,52.71
2016-02-16T04:42:37.981Z,52.71
2016-02-16T04:43:38.045Z,52.81
2016-02-16T04:44:38.091Z,52.62
2016-02-16T04:45:38.141Z,52.62
2016-02-16T04:46:38.174Z,52.81
2016-02-16T04:47:38.238Z,52.81
2016-02-16T04:48:38.287Z,52.42
2016-02-16T04:49:38.336Z,52.81
2016-02-16T04:50:38.400Z,53.58
2016-02-16T04:51:38.450Z,52.81
2016-02-16T04:52:38.500Z,52.91
2016-02-16T04:53:38.565Z,53.38
2016-02-16T04:54:38.613Z,53.38
2016-02-16T04:55:38.663Z,53.19
2016-02-16T04:56:38.713Z,53.28
2016-02-16T04:57:38.762Z,53.48
2016-02-16T04:58:38.812Z,53.28
2016-02-16T04:59:38.862Z,53.19
2016-02-16T05:00:38.927Z,53.28
2016-02-16T05:01:38.976Z,53
2016-02-16T05:02:39.026Z,53.38
2016-02-16T05:03:39.076Z,53.38
2016-02-16T05:04:39.126Z,53.38
2016-02-16T05:05:39.176Z,53.38
2016-02-16T05:06:39.225Z,53.38
2016-02-16T05:07:39.273Z,53.58
2016-02-16T05:08:39.324Z,53.19
2016-02-16T05:09:39.389Z,53.58
2016-02-16T05:10:39.439Z,53.19
2016-02-16T05:11:39.331Z,53.19
2016-02-16T05:12:39.537Z,53.28
2016-02-16T05:13:39.587Z,53.77
2016-02-16T05:14:39.637Z,53.77
2016-02-16T05:15:39.686Z,53.67
2016-02-16T05:16:39.736Z,53.86
2016-02-16T05:17:39.786Z,53.58
2016-02-16T05:18:39.850Z,53.96
2016-02-16T05:19:39.900Z,53.96
2016-02-16T05:20:39.949Z,53.77
2016-02-16T05:21:39.999Z,53.58
2016-02-16T05:22:40.049Z,53.58
2016-02-16T05:23:40.099Z,54.15
2016-02-16T05:24:40.164Z,53.77
2016-02-16T05:25:40.213Z,53.28
2016-02-16T05:26:40.279Z,53.19
2016-02-16T05:27:40.313Z,53.38
2016-02-16T05:28:40.362Z,53.38
2016-02-16T05:29:39.662Z,53.58
2016-02-16T05:30:40.461Z,53.58
2016-02-16T05:31:40.511Z,53.38
2016-02-16T05:32:40.576Z,53.67
2016-02-16T05:33:40.609Z,53.28
2016-02-16T05:34:40.659Z,53.48
2016-02-16T05:35:40.724Z,53.86
2016-02-16T05:36:40.774Z,53.48
2016-02-16T05:37:40.824Z,53.86
2016-02-16T05:38:40.873Z,53.48
2016-02-16T05:39:40.922Z,53.58
2016-02-16T05:40:40.973Z,54.05
2016-02-16T05:41:41.037Z,53.86
2016-02-16T05:42:41.086Z,54.05
2016-02-16T05:43:41.136Z,54.05
2016-02-16T05:44:41.217Z,54.24
2016-02-16T05:45:41.236Z,53.96
2016-02-16T05:46:41.301Z,53.77
2016-02-16T05:47:41.336Z,54.15
2016-02-16T05:48:41.400Z,53.86
2016-02-16T05:49:41.433Z,53.67
2016-02-16T05:50:41.499Z,54.44
2016-02-16T05:51:41.549Z,53.96
2016-02-16T05:52:41.599Z,53.77
2016-02-16T05:53:41.647Z,54.15
2016-02-16T05:54:41.697Z,54.34
2016-02-16T05:55:41.747Z,54.24
2016-02-16T05:56:41.796Z,54.34
2016-02-16T05:57:41.863Z,54.34
2016-02-16T05:58:41.911Z,54.05
2016-02-16T05:59:41.960Z,54.15
2016-02-16T06:00:42.011Z,54.34
2016-02-16T06:01:42.060Z,54.24
2016-02-16T06:02:42.141Z,54.24
2016-02-16T06:03:42.174Z,54.44
2016-02-16T06:04:42.224Z,54.63
2016-02-16T06:05:42.275Z,53.96
2016-02-16T06:06:42.340Z,53.77
2016-02-16T06:07:42.374Z,53.38
2016-02-16T06:08:42.439Z,53.58
2016-02-16T06:09:42.473Z,54.24
2016-02-16T06:10:42.538Z,53.86
2016-02-16T06:11:42.588Z,54.53
2016-02-16T06:12:42.637Z,54.24
2016-02-16T06:13:42.687Z,54.63
2016-02-16T06:14:42.737Z,54.24
2016-02-16T06:15:42.786Z,54.53
2016-02-16T06:16:42.835Z,54.53
2016-02-16T06:17:42.901Z,54.44
2016-02-16T06:18:42.935Z,54.34
2016-02-16T06:19:43.000Z,54.15
2016-02-16T06:20:43.049Z,53.96
2016-02-16T06:21:43.098Z,53.96
2016-02-16T06:22:43.149Z,54.72
2016-02-16T06:23:43.198Z,54.44
2016-02-16T06:24:43.248Z,54.15
2016-02-16T06:25:43.312Z,54.44
2016-02-16T06:26:43.347Z,54.24
2016-02-16T06:27:43.428Z,54.44
2016-02-16T06:28:43.461Z,54.63
2016-02-16T06:29:43.511Z,54.72
2016-02-16T06:30:43.561Z,54.53
2016-02-16T06:31:43.610Z,53.96
2016-02-16T06:32:43.676Z,54.63
2016-02-16T06:33:43.709Z,54.53
2016-02-16T06:34:43.775Z,54.44
2016-02-16T06:35:43.825Z,54.72
2016-02-16T06:36:43.875Z,54.63
2016-02-16T06:37:43.923Z,54.24
2016-02-16T06:38:43.973Z,54.44
2016-02-16T06:39:44.022Z,54.24
2016-02-16T06:40:44.072Z,54.24
2016-02-16T06:41:44.137Z,54.24
2016-02-16T06:42:44.187Z,54.63
2016-02-16T06:43:44.236Z,54.63
2016-02-16T06:44:44.285Z,54.53
2016-02-16T06:45:44.335Z,54.63
2016-02-16T06:46:44.401Z,54.72
2016-02-16T06:47:44.434Z,54.63
2016-02-16T06:48:44.500Z,53.96
2016-02-16T06:49:44.534Z,53.96
2016-02-16T06:50:44.599Z,54.82
2016-02-16T06:51:44.648Z,53.96
2016-02-16T06:52:44.714Z,54.05
2016-02-16T06:53:44.748Z,54.53
2016-02-16T06:54:44.813Z,54.44
2016-02-16T06:55:44.848Z,54.44
2016-02-16T06:56:44.912Z,54.15
2016-02-16T06:57:44.962Z,54.34
2016-02-16T06:58:45.011Z,54.44
2016-02-16T06:59:45.061Z,54.24
2016-02-16T07:00:45.126Z,54.34
2016-02-16T07:01:45.159Z,54.44
2016-02-16T07:02:45.225Z,54.53
2016-02-16T07:03:45.275Z,54.44
2016-02-16T07:04:45.324Z,54.63
2016-02-16T07:05:45.374Z,54.44
2016-02-16T07:06:45.423Z,54.53
2016-02-16T07:07:45.472Z,54.53
2016-02-16T07:08:45.538Z,54.15
2016-02-16T07:09:45.572Z,54.24
2016-02-16T07:10:45.638Z,54.63
2016-02-16T07:11:45.671Z,54.63
2016-02-16T07:12:45.721Z,54.72
2016-02-16T07:13:45.771Z,54.44
2016-02-16T07:14:45.835Z,54.63
2016-02-16T07:15:45.885Z,54.44
2016-02-16T07:16:45.950Z,54.34
2016-02-16T07:17:45.984Z,54.82
2016-02-16T07:18:46.049Z,54.63
2016-02-16T07:19:46.099Z,54.44
2016-02-16T07:20:46.148Z,54.82
2016-02-16T07:21:46.198Z,54.72
2016-02-16T07:22:46.247Z,54.63
2016-02-16T07:23:46.298Z,54.82
2016-02-16T07:24:46.362Z,54.91
2016-02-16T07:25:46.396Z,54.63
2016-02-16T07:26:46.446Z,54.05
2016-02-16T07:27:46.496Z,54.44
2016-02-16T07:28:46.576Z,54.34
2016-02-16T07:29:46.610Z,54.53
2016-02-16T07:30:46.660Z,54.34
2016-02-16T07:31:46.709Z,54.15
2016-02-16T07:32:46.775Z,54.44
2016-02-16T07:33:46.808Z,54.34
2016-02-16T07:34:46.873Z,54.63
2016-02-16T07:35:46.923Z,54.44
2016-02-16T07:36:46.972Z,54.24
2016-02-16T07:37:47.022Z,54.63
2016-02-16T07:38:47.072Z,54.82
2016-02-16T07:39:47.122Z,54.53
2016-02-16T07:40:47.186Z,54.82
2016-02-16T07:41:47.236Z,52.33
2016-02-16T07:42:47.269Z,43.8
2016-02-16T07:43:47.336Z,38.51
2016-02-16T07:44:47.385Z,37.53
2016-02-16T07:45:47.435Z,36.94
2016-02-16T07:46:47.484Z,36.92
2016-02-16T07:47:47.533Z,38.34
2016-02-16T07:48:47.583Z,39.29
2016-02-16T07:49:47.633Z,39.27
2016-02-16T07:50:47.682Z,39.83
2016-02-16T07:51:47.732Z,38.58
2016-02-16T07:52:47.797Z,38.3
2016-02-16T07:53:47.846Z,38.37
2016-02-16T07:54:47.896Z,39.12
2016-02-16T07:55:47.946Z,39.4
2016-02-16T07:56:47.995Z,40.26
2016-02-16T07:57:48.045Z,40.34
2016-02-16T07:58:48.095Z,40.44
2016-02-16T07:59:48.144Z,40.44
2016-02-16T08:00:48.209Z,41.96
2016-02-16T08:01:48.243Z,42.05
2016-02-16T08:02:48.292Z,42.24
2016-02-16T08:03:48.343Z,40.91
2016-02-16T08:04:48.392Z,41.36
2016-02-16T08:05:48.442Z,41.2
2016-02-16T08:06:48.506Z,40.91
2016-02-16T08:07:48.541Z,41.2
2016-02-16T08:08:48.605Z,40.15
2016-02-16T08:09:48.656Z,40.15
2016-02-16T08:10:48.689Z,39.67
2016-02-16T08:11:48.755Z,40.24
2016-02-16T08:12:48.789Z,39.86
2016-02-16T08:13:48.839Z,39.39
2016-02-16T08:14:48.888Z,38.81
2016-02-16T08:15:48.952Z,39.76
2016-02-16T08:16:48.986Z,40.05
2016-02-16T08:17:49.052Z,40.34
2016-02-16T08:18:49.086Z,40.72
2016-02-16T08:19:49.166Z,39.86
2016-02-16T08:20:49.185Z,40.34
2016-02-16T08:21:49.249Z,40.24
2016-02-16T08:22:49.284Z,39.76
2016-02-16T08:23:49.349Z,39.67
2016-02-16T08:24:49.383Z,39.86
2016-02-16T08:25:49.448Z,39.17
2016-02-16T08:26:49.482Z,39.36
2016-02-16T08:27:49.532Z,39.65
2016-02-16T08:28:49.598Z,40.41
2016-02-16T08:29:49.631Z,39.65
2016-02-16T08:30:49.681Z,39.65
2016-02-16T08:31:49.730Z,39.75
2016-02-16T08:32:49.779Z,38.89
2016-02-16T08:33:49.829Z,39.36
2016-02-16T08:34:49.863Z,39.75
2016-02-16T08:35:49.928Z,40.2
2016-02-16T08:36:49.978Z,40.48
2016-02-16T08:37:50.028Z,39.73
2016-02-16T08:38:50.092Z,39.25
2016-02-16T08:39:50.111Z,39.34
2016-02-16T08:40:50.176Z,39.63
2016-02-16T08:41:50.210Z,39.34
2016-02-16T08:42:50.260Z,39.53
2016-02-16T08:43:50.325Z,40.3
2016-02-16T08:44:50.358Z,40.77
2016-02-16T08:45:50.409Z,41.16
2016-02-16T08:46:50.458Z,40.58
2016-02-16T08:47:50.524Z,40.58
2016-02-16T08:48:50.542Z,40.68
2016-02-16T08:49:50.607Z,40.48
2016-02-16T08:50:50.656Z,40.39
2016-02-16T08:51:50.705Z,40.2
2016-02-16T08:52:50.740Z,40.68
2016-02-16T08:53:50.805Z,40.68
2016-02-16T08:54:50.838Z,40.97
2016-02-16T08:55:50.888Z,40.77
2016-02-16T08:56:50.938Z,41.25
2016-02-16T08:57:50.971Z,41.25
2016-02-16T08:58:51.038Z,41.06
2016-02-16T08:59:51.071Z,40.68
2016-02-16T09:00:51.121Z,40.48
2016-02-16T09:01:51.186Z,40.39
2016-02-16T09:02:51.220Z,40.01
2016-02-16T09:03:51.269Z,40.01
2016-02-16T09:04:51.319Z,40.2
2016-02-16T09:05:51.368Z,40.2
2016-02-16T09:06:51.418Z,40.68
2016-02-16T09:07:51.467Z,42.49
2016-02-16T09:08:51.517Z,43.44
2016-02-16T09:09:51.567Z,43.37
2016-02-16T09:10:51.601Z,42.51
2016-02-16T09:11:51.650Z,42.05
2016-02-16T09:12:51.700Z,41.96
2016-02-16T09:13:51.750Z,41.03
2016-02-16T09:14:51.799Z,40.74
2016-02-16T09:15:51.833Z,40.26
2016-02-16T09:16:51.929Z,40.09
2016-02-16T09:17:51.932Z,39.61
2016-02-16T09:18:51.982Z,39.44
2016-02-16T09:19:52.030Z,39.92
2016-02-16T09:20:52.081Z,39.44
2016-02-16T09:21:52.130Z,39.27
2016-02-16T09:22:52.180Z,40.7
2016-02-16T09:23:52.230Z,40.7
2016-02-16T09:24:52.404Z,40.15
2016-02-16T09:25:52.329Z,39.77
2016-02-16T09:26:52.379Z,39.77
2016-02-16T09:27:52.427Z,40.08
2016-02-16T09:28:52.462Z,39.79
2016-02-16T09:29:52.527Z,40.08
2016-02-16T09:30:52.560Z,39.6
2016-02-16T09:31:52.610Z,39.72
2016-02-16T09:32:52.691Z,39.81
2016-02-16T09:33:52.710Z,39.81
2016-02-16T09:34:52.759Z,39.52
2016-02-16T09:35:52.809Z,40.19
2016-02-16T09:36:52.874Z,39.35
2016-02-16T09:37:52.924Z,40.12
2016-02-16T09:38:52.957Z,40.02
2016-02-16T09:39:53.023Z,39.54
2016-02-16T09:40:53.056Z,39.94
2016-02-16T09:41:53.122Z,39.28
2016-02-16T09:42:53.156Z,39.85
2016-02-16T09:43:53.206Z,39.28
2016-02-16T09:44:53.255Z,39.85
2016-02-16T09:45:53.305Z,39.85
2016-02-16T09:46:53.353Z,39.75
2016-02-16T09:47:53.435Z,39.65
2016-02-16T09:48:53.468Z,39.75
2016-02-16T09:49:53.519Z,39.77
2016-02-16T09:50:53.553Z,39.29
2016-02-16T09:51:53.617Z,39.29
2016-02-16T09:52:53.652Z,39.97
2016-02-16T09:53:53.716Z,39.97
2016-02-16T09:54:53.750Z,39.58
2016-02-16T09:55:53.815Z,39.97
2016-02-16T09:56:53.865Z,39.77
2016-02-16T09:57:53.915Z,39.98
2016-02-16T09:58:53.965Z,39.7
2016-02-16T09:59:54.014Z,39.5
2016-02-16T10:00:54.048Z,39.5
2016-02-16T10:01:54.113Z,39.41
2016-02-16T10:02:54.162Z,39.5
2016-02-16T10:03:54.212Z,39.7
2016-02-16T10:04:54.262Z,39.98
2016-02-16T10:05:54.327Z,39.7
2016-02-16T10:06:54.376Z,39.7
2016-02-16T10:07:54.395Z,39.89
2016-02-16T10:08:54.459Z,39.6
2016-02-16T10:09:54.509Z,40.08
2016-02-16T10:10:54.559Z,39.7
2016-02-16T10:11:54.608Z,39.91
2016-02-16T10:12:54.659Z,39.72
2016-02-16T10:13:54.709Z,40.27
2016-02-16T10:14:54.758Z,39.81
2016-02-16T10:15:54.807Z,39.81
2016-02-16T10:16:54.856Z,39.33
2016-02-16T10:17:54.969Z,38.95
2016-02-16T10:18:54.956Z,38.09
2016-02-16T10:19:55.006Z,38.28
2016-02-16T10:20:55.055Z,37.68
2016-02-16T10:21:55.120Z,37.49
2016-02-16T10:22:55.154Z,37.11
2016-02-16T10:23:55.203Z,37.2
2016-02-16T10:24:55.252Z,37.2
2016-02-16T10:25:55.302Z,37.78
2016-02-16T10:26:55.352Z,37.97
2016-02-16T10:27:55.402Z,38.54
2016-02-16T10:28:55.467Z,38.26
2016-02-16T10:29:55.501Z,37.78
2016-02-16T10:30:55.566Z,37.78
2016-02-16T10:31:55.615Z,37.3
2016-02-16T10:32:55.665Z,37.01
2016-02-16T10:33:55.698Z,36.91
2016-02-16T10:34:55.765Z,36.91
2016-02-16T10:35:55.815Z,36.63
2016-02-16T10:36:55.848Z,36.91
2016-02-16T10:37:55.912Z,37.4
2016-02-16T10:38:55.962Z,37.87
2016-02-16T10:39:56.012Z,37.87
2016-02-16T10:40:56.061Z,38.26
2016-02-16T10:41:56.111Z,38.54
2016-02-16T10:42:56.161Z,38.74
2016-02-16T10:43:56.211Z,40.56
2016-02-16T10:44:56.260Z,41.13
2016-02-16T10:45:56.309Z,41.71
2016-02-16T10:46:56.374Z,42
2016-02-16T10:47:56.409Z,41.23
2016-02-16T10:48:56.475Z,40.94
2016-02-16T10:49:56.508Z,40.47
2016-02-16T10:50:56.573Z,40.56
2016-02-16T10:51:56.607Z,40.66
2016-02-16T10:52:56.672Z,40.58
2016-02-16T10:53:56.705Z,40.58
2016-02-16T10:54:56.755Z,40.67
2016-02-16T10:55:56.822Z,40.67
2016-02-16T10:56:56.855Z,40.67
2016-02-16T10:57:56.905Z,40.67
2016-02-16T10:58:56.969Z,40.58
2016-02-16T10:59:57.019Z,40.77
2016-02-16T11:00:57.068Z,40.39
2016-02-16T11:01:57.119Z,40.58
2016-02-16T11:02:57.168Z,40.67
2016-02-16T11:03:57.202Z,40.39
2016-02-16T11:04:57.267Z,40.77
2016-02-16T11:05:57.301Z,40.77
2016-02-16T11:06:57.365Z,40.48
2016-02-16T11:07:57.432Z,40.58
2016-02-16T11:08:57.465Z,40.77
2016-02-16T11:09:57.515Z,40.48
2016-02-16T11:10:57.565Z,40.67
2016-02-16T11:11:57.614Z,40.58
2016-02-16T11:12:57.679Z,40.67
2016-02-16T11:13:57.728Z,40.58
2016-02-16T11:14:57.762Z,40.7
2016-02-16T11:15:57.811Z,40.5
2016-02-16T11:16:57.862Z,40.48
2016-02-16T11:17:58.287Z,40.6
2016-02-16T11:18:57.976Z,40.5
2016-02-16T11:19:58.011Z,40.7
2016-02-16T11:20:58.075Z,40.5
2016-02-16T11:21:58.125Z,40.6
2016-02-16T11:22:58.175Z,40.41
2016-02-16T11:23:58.225Z,41.06
2016-02-16T11:24:58.289Z,40.41
2016-02-16T11:25:58.324Z,40.99
2016-02-16T11:26:58.373Z,41.85
2016-02-16T11:27:58.427Z,41.66
2016-02-16T11:28:58.477Z,42.33
2016-02-16T11:29:58.526Z,42.33
2016-02-16T11:30:58.591Z,41.46
2016-02-16T11:31:58.626Z,41.27
2016-02-16T11:32:58.706Z,41.08
2016-02-16T11:33:58.724Z,40.99
2016-02-16T11:34:58.774Z,41.08
2016-02-16T11:35:58.839Z,40.99
2016-02-16T11:36:58.904Z,41.46
2016-02-16T11:37:58.939Z,40.99
2016-02-16T11:38:58.988Z,40.79
2016-02-16T11:39:59.038Z,40.99
2016-02-16T11:40:59.072Z,41.06
2016-02-16T11:41:59.137Z,41.27
2016-02-16T11:42:59.202Z,41.16
2016-02-16T11:43:59.251Z,41.16
2016-02-16T11:44:59.301Z,41.06
2016-02-16T11:45:59.336Z,41.25
2016-02-16T11:46:59.384Z,41.44
2016-02-16T11:47:59.434Z,41.44
2016-02-16T11:48:59.499Z,41.25
2016-02-16T11:49:59.564Z,41.25
2016-02-16T11:50:59.583Z,41.54
2016-02-16T11:51:59.664Z,41.54
2016-02-16T11:52:59.697Z,41.35
2016-02-16T11:53:59.747Z,41.63
2016-02-16T11:54:59.797Z,41.44
2016-02-16T11:55:59.877Z,41.73
2016-02-16T11:56:59.911Z,41.44
2016-02-16T11:57:59.961Z,41.44
2016-02-16T11:58:59.996Z,41.73
2016-02-16T12:00:00.044Z,41.63
2016-02-16T12:01:00.110Z,41.54
2016-02-16T12:02:00.143Z,42.4
2016-02-16T12:03:00.210Z,42.02
2016-02-16T12:04:00.259Z,41.93
2016-02-16T12:05:00.350Z,42.3
2016-02-16T12:06:00.362Z,42.21
2016-02-16T12:07:00.413Z,42.3
2016-02-16T12:08:00.462Z,42.21
2016-02-16T12:09:00.527Z,42.11
2016-02-16T12:10:00.577Z,42.21
2016-02-16T12:11:00.596Z,42.21
2016-02-16T12:12:00.676Z,42.3
2016-02-16T12:13:00.710Z,42.11
2016-02-16T12:14:00.745Z,42.02
2016-02-16T12:15:00.810Z,42.3
2016-02-16T12:16:00.875Z,42.5
2016-02-16T12:17:00.909Z,42.21
2016-02-16T12:18:00.959Z,42.11
2016-02-16T12:19:01.039Z,42.3
2016-02-16T12:20:01.104Z,42.21
2016-02-16T12:21:01.122Z,42.3
2016-02-16T12:22:01.172Z,42.3
2016-02-16T12:23:01.207Z,42.3
2016-02-16T12:24:01.287Z,42.4
2016-02-16T12:25:01.321Z,42.4
2016-02-16T12:26:01.370Z,42.4
2016-02-16T12:27:01.419Z,42.4
2016-02-16T12:28:01.486Z,42.4
2016-02-16T12:29:01.535Z,42.6
2016-02-16T12:30:01.569Z,42.3
2016-02-16T12:31:01.619Z,42.69
2016-02-16T12:32:01.668Z,42.79
2016-02-16T12:33:01.717Z,42.79
2016-02-16T12:34:01.783Z,42.79
2016-02-16T12:35:01.832Z,42.88
2016-02-16T12:36:01.883Z,42.6
2016-02-16T12:37:01.932Z,42.77
2016-02-16T12:38:01.980Z,42.77
2016-02-16T12:39:02.030Z,42.88
2016-02-16T12:40:02.079Z,42.77
2016-02-16T12:41:02.113Z,42.79
2016-02-16T12:42:02.180Z,42.79
2016-02-16T12:43:02.229Z,42.69
2016-02-16T12:44:02.293Z,42.98
2016-02-16T12:45:02.329Z,42.69
2016-02-16T12:46:02.377Z,43.07
2016-02-16T12:47:02.426Z,39.43
2016-02-16T12:48:02.476Z,34.71
2016-02-16T12:49:02.526Z,34.9
2016-02-16T12:50:02.575Z,33.65
2016-02-16T12:51:02.641Z,33.25
2016-02-16T12:52:02.675Z,33.62
2016-02-16T12:53:02.725Z,34.58
2016-02-16T12:54:02.773Z,36.67
2016-02-16T12:55:02.870Z,38.2